sensor_id;sensor_type;location;lat;lon;timestamp;pressure;altitude;pressure_sealevel;temperature;humidity
804;BME280;25687;49.976;8.240;2024-02-26T00:01:08;98239.19;;;6.62;100.00
804;BME280;25687;49.976;8.240;2024-02-26T00:03:33;98223.47;;;6.55;100.00
804;BME280;25687;49.976;8.240;2024-02-26T00:06:01;98221.59;;;6.70;100.00
804;BME280;25687;49.976;8.240;2024-02-26T00:08:28;98222.00;;;6.77;100.00
804;BME280;25687;49.976;8.240;2024-02-26T00:10:53;98225.88;;;6.70;100.00
804;BME280;25687;49.976;8.240;2024-02-26T00:13:18;98237.97;;;6.68;100.00
804;BME280;25687;49.976;8.240;2024-02-26T00:15:45;98234.16;;;6.73;100.00
804;BME280;25687;49.976;8.240;2024-02-26T00:18:10;98233.72;;;6.92;100.00
804;BME280;25687;49.976;8.240;2024-02-26T00:20:36;98242.94;;;6.82;100.00
804;BME280;25687;49.976;8.240;2024-02-26T00:23:01;98242.25;;;6.67;100.00
804;BME280;25687;49.976;8.240;2024-02-26T00:25:26;98236.81;;;6.72;100.00
804;BME280;25687;49.976;8.240;2024-02-26T00:27:51;98229.16;;;6.85;100.00
804;BME280;25687;49.976;8.240;2024-02-26T00:30:17;98226.69;;;6.83;100.00
804;BME280;25687;49.976;8.240;2024-02-26T00:32:42;98220.47;;;6.74;100.00
804;BME280;25687;49.976;8.240;2024-02-26T00:35:08;98219.06;;;6.70;100.00
804;BME280;25687;49.976;8.240;2024-02-26T00:37:34;98211.91;;;6.62;100.00
804;BME280;25687;49.976;8.240;2024-02-26T00:40:00;98219.44;;;6.77;100.00
804;BME280;25687;49.976;8.240;2024-02-26T00:42:25;98229.88;;;6.74;100.00
804;BME280;25687;49.976;8.240;2024-02-26T00:44:50;98217.41;;;6.69;100.00
804;BME280;25687;49.976;8.240;2024-02-26T00:47:16;98215.53;;;6.84;100.00
804;BME280;25687;49.976;8.240;2024-02-26T00:49:41;98222.81;;;6.77;100.00
804;BME280;25687;49.976;8.240;2024-02-26T00:52:06;98230.91;;;6.71;100.00
804;BME280;25687;49.976;8.240;2024-02-26T00:54:31;98217.09;;;6.74;100.00
804;BME280;25687;49.976;8.240;2024-02-26T00:56:57;98225.72;;;6.60;100.00
804;BME280;25687;49.976;8.240;2024-02-26T00:59:22;98224.00;;;6.48;100.00
804;BME280;25687;49.976;8.240;2024-02-26T01:01:47;98232.66;;;6.58;100.00
804;BME280;25687;49.976;8.240;2024-02-26T01:04:13;98236.03;;;6.58;100.00
804;BME280;25687;49.976;8.240;2024-02-26T01:06:38;98217.34;;;6.58;100.00
804;BME280;25687;49.976;8.240;2024-02-26T01:09:03;98228.97;;;6.62;100.00
804;BME280;25687;49.976;8.240;2024-02-26T01:11:28;98214.59;;;6.48;100.00
804;BME280;25687;49.976;8.240;2024-02-26T01:13:54;98220.31;;;6.52;100.00
804;BME280;25687;49.976;8.240;2024-02-26T01:16:22;98221.13;;;6.52;100.00
804;BME280;25687;49.976;8.240;2024-02-26T01:18:47;98213.25;;;6.42;100.00
804;BME280;25687;49.976;8.240;2024-02-26T01:21:13;98227.25;;;6.50;100.00
804;BME280;25687;49.976;8.240;2024-02-26T01:23:38;98220.31;;;6.52;100.00
804;BME280;25687;49.976;8.240;2024-02-26T01:26:03;98224.31;;;6.43;100.00
804;BME280;25687;49.976;8.240;2024-02-26T01:28:29;98217.75;;;6.52;100.00
804;BME280;25687;49.976;8.240;2024-02-26T01:30:55;98227.66;;;6.43;100.00
804;BME280;25687;49.976;8.240;2024-02-26T01:33:20;98231.34;;;6.52;100.00
804;BME280;25687;49.976;8.240;2024-02-26T01:35:45;98232.16;;;6.40;100.00
804;BME280;25687;49.976;8.240;2024-02-26T01:38:12;98236.47;;;6.39;100.00
804;BME280;25687;49.976;8.240;2024-02-26T01:40:37;98236.34;;;6.41;100.00
804;BME280;25687;49.976;8.240;2024-02-26T01:43:02;98239.31;;;6.48;100.00
804;BME280;25687;49.976;8.240;2024-02-26T01:45:27;98235.94;;;6.47;100.00
804;BME280;25687;49.976;8.240;2024-02-26T01:47:54;98234.41;;;6.57;100.00
804;BME280;25687;49.976;8.240;2024-02-26T01:50:19;98238.19;;;6.52;100.00
804;BME280;25687;49.976;8.240;2024-02-26T01:52:50;98225.34;;;6.40;100.00
804;BME280;25687;49.976;8.240;2024-02-26T01:55:17;98218.97;;;6.46;100.00
804;BME280;25687;49.976;8.240;2024-02-26T01:57:44;98227.16;;;6.38;100.00
804;BME280;25687;49.976;8.240;2024-02-26T02:00:10;98236.97;;;6.44;100.00
804;BME280;25687;49.976;8.240;2024-02-26T02:02:36;98234.00;;;6.51;100.00
804;BME280;25687;49.976;8.240;2024-02-26T02:05:04;98241.28;;;6.44;100.00
804;BME280;25687;49.976;8.240;2024-02-26T02:07:31;98240.66;;;6.40;100.00
804;BME280;25687;49.976;8.240;2024-02-26T02:09:56;98245.03;;;6.51;100.00
804;BME280;25687;49.976;8.240;2024-02-26T02:12:21;98241.88;;;6.48;100.00
804;BME280;25687;49.976;8.240;2024-02-26T02:14:47;98247.88;;;6.59;100.00
804;BME280;25687;49.976;8.240;2024-02-26T02:17:12;98250.53;;;6.58;100.00
804;BME280;25687;49.976;8.240;2024-02-26T02:19:38;98265.78;;;6.72;100.00
804;BME280;25687;49.976;8.240;2024-02-26T02:22:03;98252.69;;;6.64;100.00
804;BME280;25687;49.976;8.240;2024-02-26T02:24:28;98262.41;;;6.59;100.00
804;BME280;25687;49.976;8.240;2024-02-26T02:26:53;98267.09;;;6.65;100.00
804;BME280;25687;49.976;8.240;2024-02-26T02:29:19;98269.34;;;6.57;100.00
804;BME280;25687;49.976;8.240;2024-02-26T02:31:45;98264.47;;;6.54;100.00
804;BME280;25687;49.976;8.240;2024-02-26T02:34:10;98265.47;;;6.51;100.00
804;BME280;25687;49.976;8.240;2024-02-26T02:36:48;98271.69;;;6.47;100.00
804;BME280;25687;49.976;8.240;2024-02-26T02:39:13;98275.78;;;6.50;100.00
804;BME280;25687;49.976;8.240;2024-02-26T02:41:40;98283.25;;;6.53;100.00
804;BME280;25687;49.976;8.240;2024-02-26T02:44:05;98286.50;;;6.55;100.00
804;BME280;25687;49.976;8.240;2024-02-26T02:46:31;98280.41;;;6.57;100.00
804;BME280;25687;49.976;8.240;2024-02-26T02:48:58;98293.03;;;6.72;100.00
804;BME280;25687;49.976;8.240;2024-02-26T02:51:23;98283.47;;;6.62;100.00
804;BME280;25687;49.976;8.240;2024-02-26T02:53:49;98288.97;;;6.56;100.00
804;BME280;25687;49.976;8.240;2024-02-26T02:56:14;98279.66;;;6.42;100.00
804;BME280;25687;49.976;8.240;2024-02-26T02:58:39;98283.03;;;6.30;100.00
804;BME280;25687;49.976;8.240;2024-02-26T03:01:04;98272.41;;;6.23;100.00
804;BME280;25687;49.976;8.240;2024-02-26T03:03:30;98275.25;;;6.19;100.00
804;BME280;25687;49.976;8.240;2024-02-26T03:05:55;98271.47;;;6.11;100.00
804;BME280;25687;49.976;8.240;2024-02-26T03:08:21;98275.53;;;6.01;100.00
804;BME280;25687;49.976;8.240;2024-02-26T03:10:46;98273.91;;;6.00;100.00
804;BME280;25687;49.976;8.240;2024-02-26T03:13:11;98275.38;;;6.04;100.00
804;BME280;25687;49.976;8.240;2024-02-26T03:15:37;98273.66;;;5.90;100.00
804;BME280;25687;49.976;8.240;2024-02-26T03:18:02;98280.16;;;5.81;100.00
804;BME280;25687;49.976;8.240;2024-02-26T03:20:27;98278.25;;;5.85;100.00
804;BME280;25687;49.976;8.240;2024-02-26T03:22:52;98294.94;;;5.63;100.00
804;BME280;25687;49.976;8.240;2024-02-26T03:25:18;98284.28;;;5.57;100.00
804;BME280;25687;49.976;8.240;2024-02-26T03:27:43;98283.56;;;5.55;100.00
804;BME280;25687;49.976;8.240;2024-02-26T03:30:09;98287.13;;;5.52;100.00
804;BME280;25687;49.976;8.240;2024-02-26T03:32:35;98294.53;;;5.42;100.00
804;BME280;25687;49.976;8.240;2024-02-26T03:35:00;98295.63;;;5.38;100.00
804;BME280;25687;49.976;8.240;2024-02-26T03:37:25;98297.00;;;5.29;100.00
804;BME280;25687;49.976;8.240;2024-02-26T03:39:51;98301.06;;;5.19;100.00
804;BME280;25687;49.976;8.240;2024-02-26T03:42:17;98303.44;;;5.08;100.00
804;BME280;25687;49.976;8.240;2024-02-26T03:44:42;98302.06;;;5.02;100.00
804;BME280;25687;49.976;8.240;2024-02-26T03:47:07;98296.06;;;5.03;100.00
804;BME280;25687;49.976;8.240;2024-02-26T03:49:32;98294.72;;;4.97;100.00
804;BME280;25687;49.976;8.240;2024-02-26T03:51:58;98290.53;;;4.96;100.00
804;BME280;25687;49.976;8.240;2024-02-26T03:54:23;98300.00;;;4.94;100.00
804;BME280;25687;49.976;8.240;2024-02-26T03:56:48;98296.63;;;4.94;100.00
804;BME280;25687;49.976;8.240;2024-02-26T03:59:13;98301.72;;;4.94;100.00
804;BME280;25687;49.976;8.240;2024-02-26T04:01:39;98292.19;;;4.83;100.00
804;BME280;25687;49.976;8.240;2024-02-26T04:04:04;98301.38;;;4.85;100.00
804;BME280;25687;49.976;8.240;2024-02-26T04:06:29;98296.44;;;4.82;100.00
804;BME280;25687;49.976;8.240;2024-02-26T04:08:54;98292.91;;;4.71;100.00
804;BME280;25687;49.976;8.240;2024-02-26T04:11:20;98295.63;;;4.67;100.00
804;BME280;25687;49.976;8.240;2024-02-26T04:13:45;98290.63;;;4.66;100.00
804;BME280;25687;49.976;8.240;2024-02-26T04:16:12;98285.25;;;4.56;100.00
804;BME280;25687;49.976;8.240;2024-02-26T04:18:37;98286.72;;;4.46;100.00
804;BME280;25687;49.976;8.240;2024-02-26T04:21:04;98295.25;;;4.45;100.00
804;BME280;25687;49.976;8.240;2024-02-26T04:23:30;98290.91;;;4.47;100.00
804;BME280;25687;49.976;8.240;2024-02-26T04:25:55;98293.59;;;4.44;100.00
804;BME280;25687;49.976;8.240;2024-02-26T04:28:21;98288.63;;;4.42;100.00
804;BME280;25687;49.976;8.240;2024-02-26T04:30:47;98299.69;;;4.41;100.00
804;BME280;25687;49.976;8.240;2024-02-26T04:33:13;98301.53;;;4.39;100.00
804;BME280;25687;49.976;8.240;2024-02-26T04:35:38;98300.59;;;4.40;100.00
804;BME280;25687;49.976;8.240;2024-02-26T04:38:03;98302.34;;;4.40;100.00
804;BME280;25687;49.976;8.240;2024-02-26T04:40:29;98305.06;;;4.36;100.00
804;BME280;25687;49.976;8.240;2024-02-26T04:42:54;98307.59;;;4.36;100.00
804;BME280;25687;49.976;8.240;2024-02-26T04:45:19;98308.78;;;4.31;100.00
804;BME280;25687;49.976;8.240;2024-02-26T04:47:44;98306.06;;;4.34;100.00
804;BME280;25687;49.976;8.240;2024-02-26T04:50:10;98308.09;;;4.43;100.00
804;BME280;25687;49.976;8.240;2024-02-26T04:52:36;98313.56;;;4.51;100.00
804;BME280;25687;49.976;8.240;2024-02-26T04:55:02;98319.34;;;4.53;100.00
804;BME280;25687;49.976;8.240;2024-02-26T04:57:27;98305.47;;;4.59;100.00
804;BME280;25687;49.976;8.240;2024-02-26T04:59:53;98308.38;;;4.53;100.00
804;BME280;25687;49.976;8.240;2024-02-26T05:02:18;98313.38;;;4.55;100.00
804;BME280;25687;49.976;8.240;2024-02-26T05:04:43;98318.84;;;4.63;100.00
804;BME280;25687;49.976;8.240;2024-02-26T05:07:09;98317.56;;;4.56;100.00
804;BME280;25687;49.976;8.240;2024-02-26T05:09:34;98312.38;;;4.57;100.00
804;BME280;25687;49.976;8.240;2024-02-26T05:12:00;98314.09;;;4.57;100.00
804;BME280;25687;49.976;8.240;2024-02-26T05:14:25;98309.72;;;4.59;100.00
804;BME280;25687;49.976;8.240;2024-02-26T05:16:50;98309.28;;;4.52;100.00
804;BME280;25687;49.976;8.240;2024-02-26T05:19:15;98313.47;;;4.53;100.00
804;BME280;25687;49.976;8.240;2024-02-26T05:21:41;98302.38;;;4.54;100.00
804;BME280;25687;49.976;8.240;2024-02-26T05:24:07;98312.19;;;4.60;100.00
804;BME280;25687;49.976;8.240;2024-02-26T05:26:33;98299.38;;;4.62;100.00
804;BME280;25687;49.976;8.240;2024-02-26T05:28:58;98310.00;;;4.54;100.00
804;BME280;25687;49.976;8.240;2024-02-26T05:31:25;98305.91;;;4.66;100.00
804;BME280;25687;49.976;8.240;2024-02-26T05:33:50;98307.19;;;4.73;100.00
804;BME280;25687;49.976;8.240;2024-02-26T05:36:20;98300.56;;;4.71;100.00
804;BME280;25687;49.976;8.240;2024-02-26T05:38:46;98300.81;;;4.66;100.00
804;BME280;25687;49.976;8.240;2024-02-26T05:41:11;98300.91;;;4.64;100.00
804;BME280;25687;49.976;8.240;2024-02-26T05:43:37;98303.38;;;4.51;100.00
804;BME280;25687;49.976;8.240;2024-02-26T05:46:02;98308.88;;;4.44;100.00
804;BME280;25687;49.976;8.240;2024-02-26T05:48:27;98315.22;;;4.36;100.00
804;BME280;25687;49.976;8.240;2024-02-26T05:50:53;98308.88;;;4.44;100.00
804;BME280;25687;49.976;8.240;2024-02-26T05:53:18;98317.44;;;4.43;100.00
804;BME280;25687;49.976;8.240;2024-02-26T05:55:43;98311.44;;;4.44;100.00
804;BME280;25687;49.976;8.240;2024-02-26T05:58:08;98308.44;;;4.37;100.00
804;BME280;25687;49.976;8.240;2024-02-26T06:00:34;98320.91;;;4.42;100.00
804;BME280;25687;49.976;8.240;2024-02-26T06:02:59;98327.72;;;4.41;100.00
804;BME280;25687;49.976;8.240;2024-02-26T06:05:24;98334.34;;;4.44;100.00
804;BME280;25687;49.976;8.240;2024-02-26T06:07:50;98332.69;;;4.43;100.00
804;BME280;25687;49.976;8.240;2024-02-26T06:10:15;98338.78;;;4.40;100.00
804;BME280;25687;49.976;8.240;2024-02-26T06:12:40;98345.16;;;4.33;100.00
804;BME280;25687;49.976;8.240;2024-02-26T06:15:06;98350.81;;;4.38;100.00
804;BME280;25687;49.976;8.240;2024-02-26T06:17:32;98340.69;;;4.36;100.00
804;BME280;25687;49.976;8.240;2024-02-26T06:19:58;98360.25;;;4.36;100.00
804;BME280;25687;49.976;8.240;2024-02-26T06:22:25;98360.03;;;4.25;100.00
804;BME280;25687;49.976;8.240;2024-02-26T06:24:50;98361.50;;;4.29;100.00
804;BME280;25687;49.976;8.240;2024-02-26T06:27:15;98367.13;;;4.19;100.00
804;BME280;25687;49.976;8.240;2024-02-26T06:29:40;98373.91;;;4.19;100.00
804;BME280;25687;49.976;8.240;2024-02-26T06:32:06;98375.41;;;4.23;100.00
804;BME280;25687;49.976;8.240;2024-02-26T06:34:31;98379.84;;;4.19;100.00
804;BME280;25687;49.976;8.240;2024-02-26T06:36:56;98382.41;;;4.19;100.00
804;BME280;25687;49.976;8.240;2024-02-26T06:39:22;98389.19;;;4.19;100.00
804;BME280;25687;49.976;8.240;2024-02-26T06:41:47;98380.75;;;4.18;100.00
804;BME280;25687;49.976;8.240;2024-02-26T06:44:13;98389.75;;;4.24;100.00
804;BME280;25687;49.976;8.240;2024-02-26T06:46:39;98393.56;;;4.17;100.00
804;BME280;25687;49.976;8.240;2024-02-26T06:49:05;98394.94;;;4.23;100.00
804;BME280;25687;49.976;8.240;2024-02-26T06:51:30;98397.47;;;4.23;100.00
804;BME280;25687;49.976;8.240;2024-02-26T06:53:55;98398.53;;;4.34;100.00
804;BME280;25687;49.976;8.240;2024-02-26T06:56:20;98401.78;;;4.36;100.00
804;BME280;25687;49.976;8.240;2024-02-26T06:58:46;98410.84;;;4.26;100.00
804;BME280;25687;49.976;8.240;2024-02-26T07:01:12;98419.25;;;4.28;100.00
804;BME280;25687;49.976;8.240;2024-02-26T07:03:40;98410.06;;;4.26;100.00
804;BME280;25687;49.976;8.240;2024-02-26T07:06:05;98420.94;;;4.28;100.00
804;BME280;25687;49.976;8.240;2024-02-26T07:08:31;98414.31;;;4.25;100.00
804;BME280;25687;49.976;8.240;2024-02-26T07:10:57;98431.31;;;4.25;100.00
804;BME280;25687;49.976;8.240;2024-02-26T07:13:22;98435.50;;;4.26;100.00
804;BME280;25687;49.976;8.240;2024-02-26T07:15:48;98424.75;;;4.20;100.00
804;BME280;25687;49.976;8.240;2024-02-26T07:18:13;98432.78;;;4.29;100.00
804;BME280;25687;49.976;8.240;2024-02-26T07:20:39;98439.34;;;4.33;100.00
804;BME280;25687;49.976;8.240;2024-02-26T07:23:04;98439.41;;;4.31;100.00
804;BME280;25687;49.976;8.240;2024-02-26T07:25:29;98441.50;;;4.25;100.00
804;BME280;25687;49.976;8.240;2024-02-26T07:27:54;98441.31;;;4.28;100.00
804;BME280;25687;49.976;8.240;2024-02-26T07:30:20;98442.88;;;4.30;100.00
804;BME280;25687;49.976;8.240;2024-02-26T07:32:45;98441.50;;;4.25;100.00
804;BME280;25687;49.976;8.240;2024-02-26T07:35:10;98442.38;;;4.24;100.00
804;BME280;25687;49.976;8.240;2024-02-26T07:37:35;98443.94;;;4.26;100.00
804;BME280;25687;49.976;8.240;2024-02-26T07:40:01;98451.34;;;4.31;100.00
804;BME280;25687;49.976;8.240;2024-02-26T07:42:26;98454.06;;;4.58;100.00
804;BME280;25687;49.976;8.240;2024-02-26T07:44:52;98455.81;;;4.58;100.00
804;BME280;25687;49.976;8.240;2024-02-26T07:47:18;98457.06;;;4.50;100.00
804;BME280;25687;49.976;8.240;2024-02-26T07:49:43;98454.44;;;4.36;100.00
804;BME280;25687;49.976;8.240;2024-02-26T07:52:08;98463.50;;;4.26;100.00
804;BME280;25687;49.976;8.240;2024-02-26T07:54:33;98459.22;;;4.26;100.00
804;BME280;25687;49.976;8.240;2024-02-26T07:56:59;98457.31;;;4.46;100.00
804;BME280;25687;49.976;8.240;2024-02-26T07:59:24;98458.28;;;4.43;100.00
804;BME280;25687;49.976;8.240;2024-02-26T08:01:50;98459.94;;;4.44;100.00
804;BME280;25687;49.976;8.240;2024-02-26T08:04:16;98475.13;;;4.46;100.00
804;BME280;25687;49.976;8.240;2024-02-26T08:06:41;98475.56;;;4.38;100.00
804;BME280;25687;49.976;8.240;2024-02-26T08:09:08;98481.03;;;4.46;100.00
804;BME280;25687;49.976;8.240;2024-02-26T08:11:33;98476.59;;;4.50;100.00
804;BME280;25687;49.976;8.240;2024-02-26T08:13:58;98477.63;;;4.62;100.00
804;BME280;25687;49.976;8.240;2024-02-26T08:16:24;98484.31;;;4.48;100.00
804;BME280;25687;49.976;8.240;2024-02-26T08:18:49;98478.22;;;4.51;100.00
804;BME280;25687;49.976;8.240;2024-02-26T08:21:14;98477.94;;;4.72;100.00
804;BME280;25687;49.976;8.240;2024-02-26T08:23:40;98474.91;;;4.65;100.00
804;BME280;25687;49.976;8.240;2024-02-26T08:26:05;98491.94;;;4.64;100.00
804;BME280;25687;49.976;8.240;2024-02-26T08:28:32;98490.25;;;4.79;100.00
804;BME280;25687;49.976;8.240;2024-02-26T08:30:57;98487.84;;;4.76;100.00
804;BME280;25687;49.976;8.240;2024-02-26T08:33:23;98489.53;;;4.61;100.00
804;BME280;25687;49.976;8.240;2024-02-26T08:35:48;98486.50;;;4.71;100.00
804;BME280;25687;49.976;8.240;2024-02-26T08:38:14;98486.50;;;4.71;100.00
804;BME280;25687;49.976;8.240;2024-02-26T08:40:39;98485.59;;;4.72;100.00
804;BME280;25687;49.976;8.240;2024-02-26T08:43:04;98492.38;;;4.71;100.00
804;BME280;25687;49.976;8.240;2024-02-26T08:45:29;98504.31;;;4.71;100.00
804;BME280;25687;49.976;8.240;2024-02-26T08:47:55;98501.09;;;4.83;100.00
804;BME280;25687;49.976;8.240;2024-02-26T08:50:20;98495.59;;;4.75;100.00
804;BME280;25687;49.976;8.240;2024-02-26T08:52:45;98493.66;;;4.94;100.00
804;BME280;25687;49.976;8.240;2024-02-26T08:55:15;98500.84;;;5.02;100.00
804;BME280;25687;49.976;8.240;2024-02-26T08:57:40;98496.66;;;5.01;100.00
804;BME280;25687;49.976;8.240;2024-02-26T09:00:06;98505.28;;;4.84;100.00
804;BME280;25687;49.976;8.240;2024-02-26T09:02:32;98497.53;;;4.85;100.00
804;BME280;25687;49.976;8.240;2024-02-26T09:04:57;98502.53;;;4.87;100.00
804;BME280;25687;49.976;8.240;2024-02-26T09:07:22;98499.28;;;4.99;100.00
804;BME280;25687;49.976;8.240;2024-02-26T09:09:48;98489.00;;;4.87;100.00
804;BME280;25687;49.976;8.240;2024-02-26T09:12:13;98505.03;;;5.03;100.00
804;BME280;25687;49.976;8.240;2024-02-26T09:14:38;98496.88;;;5.27;100.00
804;BME280;25687;49.976;8.240;2024-02-26T09:17:04;98496.78;;;5.14;100.00
804;BME280;25687;49.976;8.240;2024-02-26T09:19:31;98489.22;;;5.27;100.00
804;BME280;25687;49.976;8.240;2024-02-26T09:21:56;98496.53;;;5.19;100.00
804;BME280;25687;49.976;8.240;2024-02-26T09:24:23;98497.97;;;5.23;100.00
804;BME280;25687;49.976;8.240;2024-02-26T09:26:49;98505.78;;;5.05;100.00
804;BME280;25687;49.976;8.240;2024-02-26T09:29:14;98507.34;;;5.08;100.00
804;BME280;25687;49.976;8.240;2024-02-26T09:31:40;98504.88;;;5.21;100.00
804;BME280;25687;49.976;8.240;2024-02-26T09:34:06;98510.19;;;5.17;100.00
804;BME280;25687;49.976;8.240;2024-02-26T09:36:33;98510.63;;;5.24;100.00
804;BME280;25687;49.976;8.240;2024-02-26T09:38:58;98511.47;;;5.39;100.00
804;BME280;25687;49.976;8.240;2024-02-26T09:41:27;98505.56;;;5.39;100.00
804;BME280;25687;49.976;8.240;2024-02-26T09:43:56;98510.47;;;5.42;100.00
804;BME280;25687;49.976;8.240;2024-02-26T09:46:21;98515.13;;;5.49;100.00
804;BME280;25687;49.976;8.240;2024-02-26T09:48:47;98512.56;;;5.78;100.00
804;BME280;25687;49.976;8.240;2024-02-26T09:51:14;98511.56;;;5.81;100.00
804;BME280;25687;49.976;8.240;2024-02-26T09:53:43;98513.47;;;5.77;100.00
804;BME280;25687;49.976;8.240;2024-02-26T09:56:09;98514.75;;;5.85;100.00
804;BME280;25687;49.976;8.240;2024-02-26T09:58:36;98521.31;;;6.03;100.00
804;BME280;25687;49.976;8.240;2024-02-26T10:01:02;98520.50;;;5.88;100.00
804;BME280;25687;49.976;8.240;2024-02-26T10:03:39;98528.31;;;5.85;100.00
804;BME280;25687;49.976;8.240;2024-02-26T10:06:09;98524.41;;;6.08;100.00
804;BME280;25687;49.976;8.240;2024-02-26T10:08:35;98536.69;;;6.16;100.00
804;BME280;25687;49.976;8.240;2024-02-26T10:11:02;98536.78;;;6.29;100.00
804;BME280;25687;49.976;8.240;2024-02-26T10:13:28;98535.84;;;6.30;100.00
804;BME280;25687;49.976;8.240;2024-02-26T10:15:53;98535.94;;;6.28;100.00
804;BME280;25687;49.976;8.240;2024-02-26T10:18:18;98536.56;;;6.32;100.00
804;BME280;25687;49.976;8.240;2024-02-26T10:20:59;98539.91;;;6.47;100.00
804;BME280;25687;49.976;8.240;2024-02-26T10:23:26;98534.50;;;6.79;100.00
804;BME280;25687;49.976;8.240;2024-02-26T10:25:54;98540.75;;;6.48;100.00
804;BME280;25687;49.976;8.240;2024-02-26T10:28:20;98537.94;;;6.38;100.00
804;BME280;25687;49.976;8.240;2024-02-26T10:30:46;98536.28;;;6.64;100.00
804;BME280;25687;49.976;8.240;2024-02-26T10:33:12;98545.84;;;6.75;100.00
804;BME280;25687;49.976;8.240;2024-02-26T10:35:38;98543.09;;;6.51;100.00
804;BME280;25687;49.976;8.240;2024-02-26T10:38:06;98549.75;;;6.53;100.00
804;BME280;25687;49.976;8.240;2024-02-26T10:40:32;98551.91;;;6.59;100.00
804;BME280;25687;49.976;8.240;2024-02-26T10:42:58;98549.03;;;6.78;100.00
804;BME280;25687;49.976;8.240;2024-02-26T10:45:23;98556.84;;;7.03;100.00
804;BME280;25687;49.976;8.240;2024-02-26T10:47:49;98554.66;;;6.84;100.00
804;BME280;25687;49.976;8.240;2024-02-26T10:50:14;98556.38;;;6.83;100.00
804;BME280;25687;49.976;8.240;2024-02-26T10:52:43;98558.59;;;7.02;100.00
804;BME280;25687;49.976;8.240;2024-02-26T10:55:15;98559.91;;;6.95;100.00
804;BME280;25687;49.976;8.240;2024-02-26T10:57:44;98556.47;;;6.82;100.00
804;BME280;25687;49.976;8.240;2024-02-26T11:00:10;98563.22;;;6.83;100.00
804;BME280;25687;49.976;8.240;2024-02-26T11:02:39;98568.63;;;6.78;100.00
804;BME280;25687;49.976;8.240;2024-02-26T11:05:06;98564.88;;;6.84;100.00
804;BME280;25687;49.976;8.240;2024-02-26T11:07:33;98571.84;;;6.94;100.00
804;BME280;25687;49.976;8.240;2024-02-26T11:09:59;98568.50;;;7.07;100.00
804;BME280;25687;49.976;8.240;2024-02-26T11:12:27;98571.38;;;7.15;100.00
804;BME280;25687;49.976;8.240;2024-02-26T11:14:54;98578.38;;;7.26;100.00
804;BME280;25687;49.976;8.240;2024-02-26T11:17:22;98572.84;;;7.32;100.00
804;BME280;25687;49.976;8.240;2024-02-26T11:19:49;98571.81;;;7.35;100.00
804;BME280;25687;49.976;8.240;2024-02-26T11:22:15;98583.72;;;7.36;100.00
804;BME280;25687;49.976;8.240;2024-02-26T11:24:40;98584.00;;;7.44;100.00
804;BME280;25687;49.976;8.240;2024-02-26T11:27:09;98577.28;;;7.82;100.00
804;BME280;25687;49.976;8.240;2024-02-26T11:29:48;98581.25;;;7.86;100.00
804;BME280;25687;49.976;8.240;2024-02-26T11:32:15;98572.16;;;7.56;100.00
804;BME280;25687;49.976;8.240;2024-02-26T11:34:41;98575.63;;;7.55;100.00
804;BME280;25687;49.976;8.240;2024-02-26T11:39:35;98583.59;;;7.76;100.00
804;BME280;25687;49.976;8.240;2024-02-26T11:42:08;98580.34;;;7.61;100.00
804;BME280;25687;49.976;8.240;2024-02-26T11:44:34;98577.88;;;7.72;100.00
804;BME280;25687;49.976;8.240;2024-02-26T11:47:10;98572.75;;;8.35;100.00
804;BME280;25687;49.976;8.240;2024-02-26T11:49:35;98565.44;;;8.42;100.00
804;BME280;25687;49.976;8.240;2024-02-26T11:52:08;98562.94;;;8.29;100.00
804;BME280;25687;49.976;8.240;2024-02-26T11:57:30;98561.09;;;8.31;100.00
804;BME280;25687;49.976;8.240;2024-02-26T12:05:11;98578.75;;;8.60;100.00
804;BME280;25687;49.976;8.240;2024-02-26T12:07:39;98580.25;;;8.38;100.00
804;BME280;25687;49.976;8.240;2024-02-26T12:12:53;98581.97;;;8.51;100.00
804;BME280;25687;49.976;8.240;2024-02-26T12:15:18;98591.56;;;8.60;100.00
804;BME280;25687;49.976;8.240;2024-02-26T12:17:48;98602.13;;;8.55;100.00
804;BME280;25687;49.976;8.240;2024-02-26T12:20:16;98600.94;;;8.72;100.00
804;BME280;25687;49.976;8.240;2024-02-26T12:22:45;98596.03;;;8.69;100.00
804;BME280;25687;49.976;8.240;2024-02-26T12:25:11;98602.22;;;8.91;100.00
804;BME280;25687;49.976;8.240;2024-02-26T12:27:38;98598.66;;;9.05;100.00
804;BME280;25687;49.976;8.240;2024-02-26T12:30:04;98603.41;;;8.74;100.00
804;BME280;25687;49.976;8.240;2024-02-26T12:32:29;98594.59;;;8.41;100.00
804;BME280;25687;49.976;8.240;2024-02-26T12:34:56;98598.50;;;8.34;100.00
804;BME280;25687;49.976;8.240;2024-02-26T12:37:21;98597.56;;;8.35;100.00
804;BME280;25687;49.976;8.240;2024-02-26T12:39:47;98591.78;;;8.44;100.00
804;BME280;25687;49.976;8.240;2024-02-26T12:42:12;98598.72;;;8.68;100.00
804;BME280;25687;49.976;8.240;2024-02-26T12:44:39;98600.41;;;8.80;100.00
804;BME280;25687;49.976;8.240;2024-02-26T12:47:04;98603.41;;;8.74;100.00
804;BME280;25687;49.976;8.240;2024-02-26T12:49:30;98604.25;;;8.75;100.00
804;BME280;25687;49.976;8.240;2024-02-26T12:51:56;98600.84;;;8.74;100.00
804;BME280;25687;49.976;8.240;2024-02-26T12:54:33;98601.44;;;9.02;100.00
804;BME280;25687;49.976;8.240;2024-02-26T12:57:05;98597.41;;;9.11;100.00
804;BME280;25687;49.976;8.240;2024-02-26T12:59:32;98603.25;;;8.88;100.00
804;BME280;25687;49.976;8.240;2024-02-26T13:01:59;98603.97;;;8.91;100.00
804;BME280;25687;49.976;8.240;2024-02-26T13:04:26;98597.34;;;8.99;100.00
804;BME280;25687;49.976;8.240;2024-02-26T13:06:52;98607.47;;;8.90;100.00
804;BME280;25687;49.976;8.240;2024-02-26T13:09:18;98613.06;;;8.70;100.00
804;BME280;25687;49.976;8.240;2024-02-26T13:11:44;98622.13;;;8.87;100.00
804;BME280;25687;49.976;8.240;2024-02-26T13:14:22;98627.56;;;8.83;100.00
804;BME280;25687;49.976;8.240;2024-02-26T13:17:00;98630.41;;;8.67;100.00
804;BME280;25687;49.976;8.240;2024-02-26T13:19:26;98624.94;;;8.71;100.00
804;BME280;25687;49.976;8.240;2024-02-26T13:21:53;98626.88;;;8.81;100.00
804;BME280;25687;49.976;8.240;2024-02-26T13:24:19;98627.91;;;8.78;100.00
804;BME280;25687;49.976;8.240;2024-02-26T13:26:45;98632.22;;;9.02;100.00
804;BME280;25687;49.976;8.240;2024-02-26T13:29:17;98634.75;;;9.26;100.00